Dobrodošli na spletni strani vremenske postaje Senovo. Vse informacije so informativnega značaja, saj vremenska postaja ni del državne mreže meteoroloških postaj. AKTUALNIH OBVESTIL NI.


Sneg/Led Od: 22-02-2018 00:00 Do: 23-02-2018 23:59 Opozorilo za: Sneg/Led Stopnja: Rumena info button
Veter Od: 22-02-2018 00:00 Do: 23:59 Opozorilo za: Veter Stopnja: Rumena info button

Pogled proti Armezu več informacij Pogled proti Armezu


Lisca več informacij Lisca


Radar strel več informacij blitzortung!


opozorilo za sneg/led več informacij rain snow radar


Obiščite še:

Template documentation
and downloads

And another site



Weather Underground, zgodovina - Tekstovno

Dnevni povzetek za Januar 18, 2018 Enote:  Metrično    Angleško   Obe
« Predhodni Dan
Naslednji Dan »
Dnevni Tedenski Mesečni Letni Po meri
  Višja: Nižja: Povprečje:
Temperatura: -17.8 °C -20.6 °C -17 °C
Točka rosišča: -17.8 °C -31.2 °C -21.7 °C
Vlažnost: Humidity % 8 % 60 %
Hitrost vetra: 0 km/h 0 km/h 4.5 km/h
Sunki vetra: 0 km/h - -
Veter:- - WSW
Zračni tlak: 0 hPa 33992.1 hPa -
Padavine: 0 mm    
Historical Graphs
 
 
Tabelarni podarki za Januar 18, 2018
Čas Temperatura Točka rosišča Zračni tlak Veter Hitrost vetra Sunki vetra Vlažnost Intenziteta padavin (urna)
-17.8 °C -17.8 °C 0 hPa Calm     Humidity % 0 mm
00:01 -19.1 °C -22.4 °C 34130.9 hPa WNW 2.9 km/h 8.9 km/h 64 % 0 mm
00:07 -19.1 °C -22.4 °C 34130.9 hPa WNW 4.2 km/h 8.9 km/h 64 % 0 mm
00:12 -19.2 °C -22.3 °C 34164.7 hPa West 3.4 km/h 8.9 km/h 65 % 0 mm
00:17 -19.2 °C -22.3 °C 34164.7 hPa NNW 2.6 km/h 6.9 km/h 65 % 0 mm
00:22 -19.2 °C -22.4 °C 34164.7 hPa NNW 3.4 km/h 6.9 km/h 65 % 0 mm
00:27 -19.2 °C -22.3 °C 34164.7 hPa SSW 2.1 km/h 6.4 km/h 66 % 0 mm
00:32 -19.3 °C -22.3 °C 34164.7 hPa SW 1.8 km/h 5.6 km/h 66 % 0 mm
00:37 -19.3 °C -22.3 °C 34164.7 hPa SW 1 km/h 5.1 km/h 66 % 7.62 mm
00:42 -19.3 °C -22.3 °C 34164.7 hPa SSW 3.1 km/h 8.9 km/h 67 % 7.62 mm
00:47 -19.3 °C -22.3 °C 34164.7 hPa SW 3.9 km/h 8.9 km/h 67 % 7.62 mm
00:52 -19.3 °C -22.3 °C 34164.7 hPa NW 2.6 km/h 7.6 km/h 67 % 7.62 mm
00:57 -19.4 °C -22.2 °C 34164.7 hPa NW 2.1 km/h 6.4 km/h 68 % 7.62 mm
01:02 -19.4 °C -22.2 °C 34164.7 hPa West 1.6 km/h 6.4 km/h 68 % 7.62 mm
01:07 -19.4 °C -22.2 °C 34164.7 hPa WSW 1.6 km/h 6.4 km/h 68 % 7.62 mm
01:12 -19.4 °C -22.2 °C 34164.7 hPa WSW 1 km/h 5.1 km/h 69 % 7.62 mm
01:17 -19.5 °C -22.2 °C 34164.7 hPa WSW 1 km/h 6.4 km/h 69 % 7.62 mm
01:22 -19.5 °C -22.2 °C 34164.7 hPa WSW 1.3 km/h 8.9 km/h 69 % 7.62 mm
01:27 -19.5 °C -22.1 °C 34198.6 hPa SW 3.4 km/h 8.9 km/h 70 % 7.62 mm
01:32 -19.5 °C -22.1 °C 34198.6 hPa WSW 4.2 km/h 7.6 km/h 70 % 7.62 mm
01:37 -19.6 °C -22.2 °C 34198.6 hPa WNW 3.1 km/h 7.6 km/h 70 % 0 mm
01:42 -19.6 °C -22.2 °C 34198.6 hPa WNW 4.3 km/h 6.4 km/h 70 % 0 mm
01:47 -19.6 °C -22.1 °C 34198.6 hPa WNW 3.9 km/h 6.4 km/h 71 % 0 mm
01:52 -19.6 °C -22.1 °C 34198.6 hPa West 3.1 km/h 6.9 km/h 71 % 0 mm
01:57 -19.6 °C -22.1 °C 34198.6 hPa NW 2.1 km/h 6.9 km/h 71 % 0 mm
02:02 -19.6 °C -22.1 °C 34198.6 hPa NE 0.5 km/h 5.6 km/h 71 % 0 mm
02:07 -19.6 °C -22 °C 34198.6 hPa SW 0.5 km/h 5.6 km/h 72 % 0 mm
02:12 -19.7 °C -22.1 °C 34198.6 hPa WSW 2.6 km/h 7.6 km/h 72 % 0 mm
02:17 -19.7 °C -22.1 °C 34198.6 hPa WSW 4.3 km/h 7.6 km/h 72 % 0 mm
02:22 -19.7 °C -22.1 °C 34198.6 hPa SW 3.7 km/h 7.6 km/h 72 % 0 mm
02:27 -19.7 °C -22.1 °C 34198.6 hPa WNW 2.1 km/h 6.9 km/h 72 % 0 mm
02:32 -19.7 °C -22.1 °C 34198.6 hPa WNW 3.9 km/h 8.9 km/h 72 % 0 mm
02:37 -19.8 °C -22.1 °C 34198.6 hPa WNW 4.2 km/h 8.9 km/h 73 % 0 mm
02:42 -19.8 °C -22.1 °C 34235.8 hPa West 1 km/h 5.6 km/h 73 % 0 mm
02:47 -19.8 °C -22.1 °C 34235.8 hPa Calm     73 % 0 mm
02:52 -19.8 °C -22.1 °C 34235.8 hPa SW 0.5 km/h 6.4 km/h 73 % 0 mm
02:57 -19.8 °C -22.1 °C 34235.8 hPa West 1.3 km/h 6.4 km/h 73 % 0 mm
03:02 -19.9 °C -22.2 °C 34235.8 hPa NW 1.8 km/h 6.4 km/h 73 % 0 mm
03:07 -19.9 °C -22.1 °C 34235.8 hPa NNW 1 km/h 6.4 km/h 74 % 0 mm
03:12 -19.9 °C -22.1 °C 34235.8 hPa Calm   5.1 km/h 74 % 0 mm
03:17 -19.9 °C -22.1 °C 34235.8 hPa NW 0.8 km/h 5.1 km/h 74 % 0 mm
03:22 -19.9 °C -22.1 °C 34235.8 hPa NW 1 km/h 4.2 km/h 74 % 0 mm
03:27 -19.9 °C -22.1 °C 34269.7 hPa NW 0.3 km/h 3.4 km/h 74 % 0 mm
03:32 -20 °C -22.1 °C 34269.7 hPa SW 1.8 km/h 6.4 km/h 75 % 0 mm
03:37 -20 °C -22.1 °C 34269.7 hPa WSW 3.7 km/h 6.4 km/h 75 % 0 mm
03:42 -20 °C -22.1 °C 34235.8 hPa NW 4.7 km/h 7.6 km/h 75 % 0 mm
03:47 -20 °C -22.1 °C 34235.8 hPa NNW 3.9 km/h 7.6 km/h 75 % 0 mm
03:52 -20.1 °C -22.2 °C 34235.8 hPa NW 2.9 km/h 5.1 km/h 75 % 0 mm
03:57 -20.1 °C -22.2 °C 34198.6 hPa NW 2.1 km/h 6.4 km/h 75 % 0 mm
04:02 -20.1 °C -22.1 °C 34198.6 hPa WNW 0.8 km/h 6.4 km/h 76 % 0 mm
04:07 -20.1 °C -22.1 °C 34198.6 hPa SSE 0.3 km/h 3.4 km/h 76 % 0 mm
04:12 -20.1 °C -22.1 °C 34235.8 hPa SSE 0.3 km/h 3.4 km/h 76 % 0 mm
04:17 -20.1 °C -22.1 °C 34235.8 hPa Calm   6.4 km/h 76 % 0 mm
04:22 -20.2 °C -22.2 °C 34235.8 hPa NNW 1 km/h 6.4 km/h 76 % 0 mm
04:27 -20.2 °C -22.2 °C 34235.8 hPa NW 1.6 km/h 4.2 km/h 76 % 0 mm
04:32 -20.2 °C -22.2 °C 34235.8 hPa NW 2.1 km/h 6.4 km/h 76 % 0 mm
04:37 -20.2 °C -22.2 °C 34235.8 hPa West 3.4 km/h 8 km/h 76 % 0 mm
04:42 -20.3 °C -22.3 °C 34235.8 hPa West 4.3 km/h 9.3 km/h 76 % 0 mm
04:47 -20.3 °C -22.2 °C 34235.8 hPa West 3.9 km/h 9.3 km/h 77 % 0 mm
04:52 -20.3 °C -22.2 °C 34235.8 hPa WNW 2.9 km/h 7.6 km/h 77 % 0 mm
04:57 -20.3 °C -22.2 °C 34198.6 hPa WNW 2.6 km/h 7.6 km/h 77 % 0 mm
05:03 -20.3 °C -22.2 °C 34198.6 hPa WNW 2.3 km/h 6.9 km/h 77 % 0 mm
05:08 -20.3 °C -22.2 °C 34198.6 hPa WSW 1.6 km/h 5.6 km/h 77 % 0 mm
05:13 -20.3 °C -22.2 °C 34235.8 hPa WNW 0.5 km/h 3.4 km/h 77 % 0 mm
05:18 -20.3 °C -22.2 °C 34235.8 hPa NW 1.3 km/h 8.9 km/h 77 % 0 mm
05:23 -20.3 °C -22.2 °C 34235.8 hPa NNW 2.6 km/h 8.9 km/h 77 % 0 mm
05:28 -20.3 °C -22.1 °C 34235.8 hPa North 1.6 km/h 8.9 km/h 78 % 0 mm
05:33 -20.4 °C -22.2 °C 34235.8 hPa Calm   4.2 km/h 78 % 0 mm
05:38 -20.4 °C -22.2 °C 34235.8 hPa Calm   4.2 km/h 78 % 0 mm
05:43 -20.4 °C -22.2 °C 34269.7 hPa NNW 0.8 km/h 7.6 km/h 78 % 0 mm
05:48 -20.4 °C -22.2 °C 34269.7 hPa NNW 0.8 km/h 7.6 km/h 78 % 0 mm
05:53 -20.4 °C -22.2 °C 34269.7 hPa Calm   5.1 km/h 78 % 0 mm
05:58 -20.4 °C -22.3 °C 34235.8 hPa SSE 0.5 km/h 8 km/h 78 % 0 mm
06:03 -20.4 °C -22.2 °C 34235.8 hPa SSW 3.7 km/h 8 km/h 78 % 0 mm
06:08 -20.4 °C -22.2 °C 34235.8 hPa SW 4.2 km/h 7.6 km/h 78 % 0 mm
06:14 -20.4 °C -22.2 °C 34235.8 hPa NW 2.3 km/h 6.4 km/h 79 % 0 mm
06:19 -20.4 °C -22.2 °C 34235.8 hPa NW 3.1 km/h 7.6 km/h 79 % 0 mm
06:24 -20.4 °C -22.2 °C 34235.8 hPa NW 3.1 km/h 7.6 km/h 79 % 0 mm
06:29 -20.4 °C -22.2 °C 34235.8 hPa WNW 2.3 km/h 7.6 km/h 79 % 0 mm
06:34 -20.4 °C -22.2 °C 34235.8 hPa WNW 1 km/h 7.6 km/h 79 % 0 mm
06:39 -20.4 °C -22.2 °C 34235.8 hPa NW 0.3 km/h 3.4 km/h 79 % 0 mm
06:44 -20.4 °C -22.2 °C 34235.8 hPa West 1.8 km/h 5.6 km/h 79 % 0 mm
06:49 -20.4 °C -22.2 °C 34235.8 hPa West 1.8 km/h 5.6 km/h 79 % 0 mm
06:54 -20.4 °C -22.2 °C 34235.8 hPa North 0.3 km/h   79 % 0 mm
06:59 -20.4 °C -22.2 °C 34235.8 hPa NNW 1.6 km/h 5.6 km/h 79 % 0 mm
07:04 -20.4 °C -22.1 °C 34235.8 hPa NNW 1.6 km/h 5.6 km/h 80 % 0 mm
07:09 -20.5 °C -22.1 °C 34235.8 hPa WNW 0.3 km/h 4.2 km/h 80 % 0 mm
07:14 -20.5 °C -22.1 °C 34269.7 hPa SSW 0.8 km/h 5.1 km/h 80 % 0 mm
07:19 -20.5 °C -22.1 °C 34269.7 hPa SSE 0.8 km/h 5.1 km/h 80 % 0 mm
07:24 -20.5 °C -22.1 °C 34269.7 hPa SSE 0.8 km/h 4.2 km/h 80 % 0 mm
07:29 -20.5 °C -22.1 °C 34235.8 hPa Calm     80 % 0 mm
07:34 -20.6 °C -22.2 °C 34235.8 hPa Calm     80 % 0 mm
07:39 -20.5 °C -22.1 °C 34235.8 hPa Calm     80 % 0 mm
07:44 -20.6 °C -22.1 °C 34269.7 hPa Calm     81 % 0 mm
07:49 -20.6 °C -22.1 °C 34269.7 hPa Calm     81 % 0 mm
07:54 -20.6 °C -22.1 °C 34269.7 hPa Calm     81 % 0 mm
07:59 -20.6 °C -22.1 °C 34269.7 hPa Calm     81 % 0 mm
08:04 -20.6 °C -22.1 °C 34269.7 hPa Calm     81 % 0 mm
08:09 -20.5 °C -22.1 °C 34269.7 hPa Calm     81 % 0 mm
08:14 -20.5 °C -22.1 °C 34303.6 hPa Calm     81 % 0 mm
08:19 -20.5 °C -22.1 °C 34303.6 hPa Calm     81 % 0 mm
08:24 -20.5 °C -22.1 °C 34303.6 hPa Calm     81 % 0 mm
08:29 -20.5 °C -22.1 °C 34303.6 hPa Calm     81 % 0 mm
08:34 -20.5 °C -22.1 °C 34303.6 hPa Calm     81 % 0 mm
08:39 -20.4 °C -21.9 °C 34303.6 hPa Calm     81 % 0 mm
08:44 -20.3 °C -21.9 °C 34303.6 hPa Calm     81 % 0 mm
08:49 -20.3 °C -21.7 °C 34303.6 hPa Calm     82 % 0 mm
08:54 -20.2 °C -21.6 °C 34303.6 hPa Calm     82 % 0 mm
08:59 -20.1 °C -21.6 °C 34303.6 hPa South 0.5 km/h 5.1 km/h 82 % 0 mm
09:04 -19.9 °C -21.4 °C 34303.6 hPa SSW 2.3 km/h 6.4 km/h 82 % 0 mm
09:09 -19.8 °C -21.3 °C 34303.6 hPa SSW 4.2 km/h 8 km/h 82 % 0 mm
09:14 -19.7 °C -21.1 °C 34303.6 hPa SW 4.2 km/h 8 km/h 83 % 0 mm
09:19 -19.6 °C -21 °C 34303.6 hPa SW 2.1 km/h 6.4 km/h 83 % 0 mm
09:24 -19.5 °C -20.9 °C 34303.6 hPa SSE 0.3 km/h 4.2 km/h 83 % 0 mm
09:29 -19.4 °C -20.8 °C 34303.6 hPa SE 0.5 km/h 5.6 km/h 83 % 0 mm
09:34 -19.3 °C -20.6 °C 34303.6 hPa SSE 2.1 km/h 6.4 km/h 84 % 0 mm
09:39 -19.2 °C -20.4 °C 34303.6 hPa SSE 1.6 km/h 6.4 km/h 84 % 0 mm
09:44 -19.1 °C -20.4 °C 34303.6 hPa Calm     84 % 0 mm
09:49 -18.9 °C -20.2 °C 34303.6 hPa SW 0.3 km/h 3.4 km/h 84 % 0 mm
09:54 -18.8 °C -20.1 °C 34303.6 hPa SW 0.3 km/h 3.4 km/h 84 % 0 mm
09:59 -18.8 °C -20.1 °C 34303.6 hPa SSE 0.8 km/h 5.1 km/h 84 % 0 mm
10:04 -18.6 °C -19.8 °C 34303.6 hPa SSE 0.8 km/h 5.1 km/h 85 % 0 mm
10:09 -18.4 °C -19.7 °C 34303.6 hPa SE 1.8 km/h 6.9 km/h 85 % 0 mm
10:14 -18.3 °C -19.5 °C 34303.6 hPa SE 1.8 km/h 6.9 km/h 85 % 0 mm
10:19 -18 °C -19.2 °C 34303.6 hPa SSE 0.8 km/h 5.1 km/h 85 % 0 mm
10:24 -17.7 °C -18.8 °C 34303.6 hPa SSW 2.3 km/h 6.9 km/h 86 % 0 mm
10:29 -17.5 °C -18.7 °C 34303.6 hPa SSW 4.3 km/h 7.6 km/h 86 % 0 mm
10:34 -17.3 °C -18.5 °C 34303.6 hPa South 5 km/h 8 km/h 86 % 0 mm
10:39 -17.2 °C -18.3 °C 34303.6 hPa SSE 3.9 km/h 8 km/h 86 % 0 mm
10:44 -17.1 °C -18.2 °C 34303.6 hPa SSE 1.8 km/h 4.2 km/h 86 % 0 mm
10:49 -16.9 °C -18.1 °C 34303.6 hPa South 0.5 km/h 4.2 km/h 86 % 0 mm
10:54 -16.8 °C -18 °C 34303.6 hPa Calm     86 % 0 mm
10:59 -16.7 °C -17.9 °C 34303.6 hPa South 0.8 km/h 5.6 km/h 86 % 0 mm
11:04 -16.6 °C -17.8 °C 34303.6 hPa South 1.3 km/h 5.6 km/h 86 % 0 mm
11:09 -16.6 °C -17.7 °C 34303.6 hPa South 0.3 km/h 3.4 km/h 86 % 0 mm
11:14 -16.4 °C -17.6 °C 34269.7 hPa Calm   3.4 km/h 86 % 0 mm
11:19 -16.3 °C -17.5 °C 34269.7 hPa East 1.3 km/h 6.4 km/h 86 % 0 mm
11:24 -16.2 °C -17.4 °C 34269.7 hPa East 3.9 km/h 8.9 km/h 86 % 0 mm
11:29 -15.9 °C -17.2 °C 34235.8 hPa ESE 6.3 km/h 9.3 km/h 85 % 0 mm
11:34 -15.7 °C -17 °C 34235.8 hPa SE 7.2 km/h 11.1 km/h 85 % 0 mm
11:39 -15.4 °C -16.7 °C 34235.8 hPa SE 6.9 km/h 11.1 km/h 85 % 0 mm
11:44 -15.2 °C -16.5 °C 34235.8 hPa SE 6.4 km/h 9.3 km/h 85 % 0 mm
11:49 -14.9 °C -16.3 °C 34235.8 hPa SE 6.8 km/h 9.8 km/h 84 % 0 mm
11:54 -14.7 °C -16.1 °C 34235.8 hPa SSE 7.7 km/h 12.2 km/h 84 % 0 mm
11:59 -14.6 °C -16.1 °C 34235.8 hPa SSE 10.1 km/h 15.6 km/h 83 % 0 mm
12:04 -14.4 °C -16 °C 34235.8 hPa SSE 10.9 km/h 15.6 km/h 82 % 0 mm
12:09 -14.3 °C -15.9 °C 34235.8 hPa SSE 10.1 km/h 15 km/h 82 % 0 mm
12:14 -14.2 °C -15.8 °C 34235.8 hPa SSE 9.3 km/h 14.5 km/h 81 % 0 mm
12:19 -14.1 °C -15.8 °C 34235.8 hPa SSE 10.6 km/h 20.9 km/h 80 % 0 mm
12:24 -13.8 °C -15.9 °C 34235.8 hPa South 12.4 km/h 24.8 km/h 77 % 0 mm
12:29 -13.7 °C -15.9 °C 34198.6 hPa South 14.2 km/h 24.8 km/h 76 % 0 mm
12:34 -13.5 °C -15.9 °C 34198.6 hPa SSW 14 km/h 24.8 km/h 74 % 0 mm
12:39 -13.4 °C -16 °C 34198.6 hPa SSW 12.9 km/h 19.2 km/h 72 % 0 mm
12:44 -13.3 °C -16.2 °C 34164.7 hPa SSW 12.4 km/h 19.6 km/h 70 % 0 mm
12:49 -13.2 °C -16.4 °C 34164.7 hPa SSW 11.1 km/h 19.6 km/h 67 % 0 mm
12:54 -13.1 °C -16.6 °C 34164.7 hPa SSW 10.3 km/h 15 km/h 65 % 0 mm
12:59 -13.2 °C -16.8 °C 34164.7 hPa South 11.4 km/h 16.9 km/h 63 % 0 mm
13:04 -13.2 °C -17.3 °C 34164.7 hPa South 9.8 km/h 16.9 km/h 60 % 0 mm
13:09 -13.2 °C -17.4 °C 34164.7 hPa SW 9 km/h 22 km/h 59 % 0 mm
13:14 -13.1 °C -17.6 °C 34130.9 hPa SW 9.7 km/h 22 km/h 57 % 0 mm
13:19 -13.1 °C -17.8 °C 34130.9 hPa SW 9.7 km/h 16.9 km/h 55 % 0 mm
13:24 -13.1 °C -18.1 °C 34130.9 hPa SSW 9.3 km/h 16.9 km/h 53 % 0 mm
13:29 -13.1 °C -18.2 °C 34164.7 hPa South 9 km/h 16.9 km/h 52 % 0 mm
13:34 -13.1 °C -18.4 °C 34164.7 hPa SE 9 km/h 16.9 km/h 51 % 0 mm
13:39 -13.2 °C -18.7 °C 34164.7 hPa SSE 6.3 km/h 11.1 km/h 50 % 0 mm
13:44 -13.1 °C -18.7 °C 34164.7 hPa SSW 6 km/h 16.3 km/h 49 % 0 mm
13:49 -13.1 °C -18.8 °C 34164.7 hPa SSW 9.7 km/h 22.5 km/h 48 % 0 mm
13:54 -12.9 °C -18.9 °C 34164.7 hPa SW 9.7 km/h 22.5 km/h 47 % 0 mm
13:59 -12.9 °C -19.1 °C 34130.9 hPa West 6.8 km/h 14 km/h 46 % 0 mm
14:04 -12.8 °C -19.3 °C 34130.9 hPa WSW 6.8 km/h 14.5 km/h 44 % 0 mm
14:09 -12.7 °C -19.3 °C 34130.9 hPa WSW 6.9 km/h 14.5 km/h 43 % 0 mm
14:14 -12.6 °C -19.4 °C 34130.9 hPa West 7.6 km/h 14.5 km/h 42 % 0 mm
14:19 -12.6 °C -19.8 °C 34130.9 hPa West 9.7 km/h 20.9 km/h 40 % 0 mm
14:24 -12.4 °C -19.6 °C 34130.9 hPa West 10.1 km/h 20.9 km/h 40 % 0 mm
14:29 -12.4 °C -19.8 °C 34130.9 hPa West 8.5 km/h 20.3 km/h 39 % 0 mm
14:34 -12.4 °C -19.9 °C 34130.9 hPa WSW 9 km/h 22.5 km/h 38 % 0 mm
14:39 -12.4 °C -20.2 °C 34130.9 hPa WSW 11.1 km/h 27.2 km/h 37 % 0 mm
14:44 -12.3 °C -20.3 °C 34130.9 hPa West 11.1 km/h 27.2 km/h 36 % 0 mm
14:49 -12.3 °C -20.7 °C 34130.9 hPa West 10.6 km/h 20.9 km/h 34 % 0 mm
14:54 -12.3 °C -20.9 °C 34130.9 hPa West 10.3 km/h 20.9 km/h 33 % 0 mm
14:59 -12.2 °C -21.3 °C 34097 hPa WSW 10.6 km/h 20.9 km/h 31 % 0 mm
15:04 -12.2 °C -21.6 °C 34097 hPa WSW 10.3 km/h 20.9 km/h 30 % 0 mm
15:09 -12.3 °C -21.8 °C 34097 hPa West 10.1 km/h 19.6 km/h 29 % 0 mm
15:14 -12.3 °C -22.2 °C 34097 hPa WNW 10.6 km/h 33.2 km/h 28 % 0 mm
15:19 -12.4 °C -22.7 °C 34097 hPa West 11.6 km/h 33.2 km/h 26 % 0 mm
15:24 -12.4 °C -24.9 °C 34097 hPa West 12.2 km/h 22.5 km/h 19 % 0 mm
15:29 -12.5 °C -27.1 °C 34130.9 hPa WSW 11.9 km/h 22.5 km/h 14 % 0 mm
15:34 -12.6 °C -28.8 °C 34130.9 hPa WSW 10.9 km/h 22.5 km/h 11 % 0 mm
15:39 -12.6 °C -30.8 °C 34130.9 hPa West 11.4 km/h 23 km/h 8 % 0 mm
15:44 -12.7 °C -30.9 °C 34097 hPa WSW 12.7 km/h 23 km/h 8 % 0 mm
15:49 -12.8 °C -30.9 °C 34097 hPa SW 10.9 km/h 19.6 km/h 8 % 0 mm
15:54 -12.9 °C -31 °C 34097 hPa SW 8.9 km/h 19.6 km/h 8 % 0 mm
15:59 -12.9 °C -31 °C 34097 hPa SW 8.2 km/h 19.6 km/h 8 % 0 mm
16:04 -13.1 °C -31.2 °C 34097 hPa SW 7.2 km/h 15.6 km/h 8 % 0 mm
16:09 -13.1 °C -31.1 °C 34097 hPa WSW 10.9 km/h 41.2 km/h 8 % 0 mm
16:14 -13.2 °C -31.2 °C 34097 hPa WSW 10.6 km/h 41.2 km/h 8 % 0 mm
16:19 -13.3 °C -30.6 °C 34097 hPa WSW 5.5 km/h 16.3 km/h 9 % 0 mm
16:24 -13.4 °C -28.8 °C 34097 hPa SSW 6.9 km/h 16.9 km/h 12 % 0 mm
16:29 -13.3 °C -28.8 °C 34097 hPa WSW 9.8 km/h 16.9 km/h 12 % 0 mm
16:34 -13.3 °C -28.7 °C 34097 hPa NW 8.9 km/h 19.6 km/h 12 % 0 mm
16:39 -13.3 °C -28.7 °C 34097 hPa SSW 9.8 km/h 24.8 km/h 12 % 0 mm
16:44 -13.3 °C -27.7 °C 34097 hPa SW 10.3 km/h 24.8 km/h 14 % 0 mm
16:49 -13.3 °C -27.7 °C 34097 hPa WSW 8.9 km/h 27.7 km/h 14 % 0 mm
16:54 -13.3 °C -27.7 °C 34097 hPa WSW 8.5 km/h 27.7 km/h 14 % 0 mm
16:59 -13.4 °C -26.5 °C 34097 hPa SW 7.2 km/h 16.3 km/h 17 % 0 mm
17:04 -13.5 °C -26.6 °C 34097 hPa SW 5.5 km/h 16.3 km/h 17 % 0 mm
17:09 -13.6 °C -25.6 °C 34097 hPa WSW 5.5 km/h 16.3 km/h 20 % 0 mm
17:14 -13.7 °C -25.7 °C 34063.2 hPa West 6.4 km/h 19.2 km/h 20 % 0 mm
17:19 -13.7 °C -25 °C 34063.2 hPa WSW 7.2 km/h 20.9 km/h 22 % 0 mm
17:24 -13.6 °C -25.6 °C 34063.2 hPa WSW 10.1 km/h 20.9 km/h 20 % 0 mm
17:29 -13.5 °C -26.6 °C 34097 hPa WSW 10.3 km/h 20.3 km/h 17 % 0 mm
17:34 -13.4 °C -26.6 °C 34097 hPa WSW 10.3 km/h 17.9 km/h 17 % 0 mm
17:39 -13.5 °C -26.6 °C 34097 hPa SW 8.5 km/h 17.9 km/h 17 % 0 mm
17:44 -13.6 °C -27.6 °C 34097 hPa SW 6.8 km/h 16.9 km/h 15 % 0 mm
17:49 -13.6 °C -26.7 °C 34097 hPa SW 6.9 km/h 16.9 km/h 17 % 0 mm
17:54 -13.7 °C -26.7 °C 34097 hPa West 8.2 km/h 16.9 km/h 17 % 0 mm
17:59 -13.7 °C -26.7 °C 34097 hPa West 9.3 km/h 19.6 km/h 17 % 0 mm
18:04 -13.8 °C -25.7 °C 34097 hPa West 6.9 km/h 19.6 km/h 20 % 0 mm
18:09 -13.8 °C -25.8 °C 34097 hPa West 6.3 km/h 12.2 km/h 20 % 0 mm
18:14 -13.9 °C -24.9 °C 34097 hPa West 7.2 km/h 12.2 km/h 23 % 0 mm
18:19 -14.1 °C -24.5 °C 34097 hPa West 5.5 km/h 11.1 km/h 25 % 0 mm
18:24 -14.2 °C -23.7 °C 34097 hPa WSW 3.9 km/h 8.9 km/h 28 % 0 mm
18:29 -14.2 °C -23.8 °C 34097 hPa WSW 5 km/h 15.6 km/h 28 % 0 mm
18:34 -14.2 °C -23.7 °C 34097 hPa WSW 6 km/h 15.6 km/h 28 % 0 mm
18:39 -14.3 °C -23.6 °C 34097 hPa WSW 4.3 km/h 20.9 km/h 29 % 0 mm
18:44 -14.4 °C -23.7 °C 34130.9 hPa West 5.1 km/h 20.9 km/h 29 % 0 mm
18:49 -14.6 °C -23.8 °C 34130.9 hPa West 6.4 km/h 15 km/h 29 % 0 mm
18:54 -14.8 °C -23.8 °C 34130.9 hPa West 5.6 km/h 14.5 km/h 30 % 0 mm
18:59 -15.1 °C -23.8 °C 34097 hPa WNW 5.6 km/h 14.5 km/h 31 % 0 mm
19:04 -15.4 °C -23.7 °C 34097 hPa NW 4.3 km/h 8.9 km/h 33 % 0 mm
19:09 -15.7 °C -23.7 °C 34097 hPa NW 2.9 km/h 8.9 km/h 34 % 0 mm
19:14 -15.9 °C -23.5 °C 34097 hPa NW 2.6 km/h 8.9 km/h 36 % 0 mm
19:19 -16.1 °C -23.3 °C 34097 hPa NNW 3.1 km/h 7.6 km/h 38 % 0 mm
19:24 -16.3 °C -23.3 °C 34097 hPa NNW 4.7 km/h 9.8 km/h 39 % 0 mm
19:29 -16.4 °C -23.2 °C 34097 hPa NNW 4.7 km/h 9.8 km/h 40 % 0 mm
19:34 -16.6 °C -23.4 °C 34097 hPa NW 3.1 km/h 7.6 km/h 40 % 0 mm
19:39 -16.7 °C -23.3 °C 34097 hPa NW 2.1 km/h 6.9 km/h 41 % 0 mm
19:44 -16.8 °C -23.3 °C 34130.9 hPa NW 3.1 km/h 8.9 km/h 42 % 0 mm
19:49 -16.8 °C -23.3 °C 34130.9 hPa NW 3.7 km/h 8.9 km/h 42 % 0 mm
19:54 -17 °C -23.2 °C 34130.9 hPa West 1.3 km/h 6.9 km/h 43 % 0 mm
19:59 -17.2 °C -23.2 °C 34097 hPa WNW 1.8 km/h 6.9 km/h 44 % 0 mm
20:04 -17.2 °C -23.3 °C 34097 hPa WNW 3.4 km/h 6.9 km/h 44 % 0 mm
20:09 -17.3 °C -23.2 °C 34097 hPa WNW 1.8 km/h 6.9 km/h 45 % 0 mm
20:14 -17.4 °C -23.1 °C 34097 hPa Calm     46 % 0 mm
20:19 -17.4 °C -23 °C 34097 hPa WNW 1.3 km/h 6.9 km/h 47 % 0 mm
20:24 -17.6 °C -22.9 °C 34097 hPa WNW 1.3 km/h 6.9 km/h 48 % 0 mm
20:29 -17.6 °C -22.9 °C 34097 hPa NW 0.8 km/h 6.9 km/h 49 % 0 mm
20:34 -17.6 °C -22.9 °C 34097 hPa NW 1 km/h 6.9 km/h 49 % 0 mm
20:39 -17.7 °C -22.8 °C 34097 hPa NW 0.3 km/h 4.2 km/h 50 % 0 mm
20:44 -17.8 °C -22.7 °C 34097 hPa Calm     51 % 0 mm
20:49 -17.8 °C -22.8 °C 34097 hPa Calm     51 % 0 mm
20:54 -17.9 °C -22.8 °C 34097 hPa Calm     51 % 0 mm
20:59 -17.9 °C -22.7 °C 34097 hPa WNW 1 km/h 6.9 km/h 52 % 0 mm
21:04 -17.9 °C -22.8 °C 34097 hPa WNW 1.8 km/h 6.9 km/h 52 % 0 mm
21:09 -17.9 °C -22.6 °C 34097 hPa NW 2.3 km/h 6.9 km/h 53 % 0 mm
21:14 -17.9 °C -22.6 °C 34063.2 hPa NW 3.1 km/h 8 km/h 53 % 0 mm
21:19 -17.8 °C -22.4 °C 34063.2 hPa NW 2.9 km/h 8 km/h 54 % 0 mm
21:24 -17.8 °C -22.4 °C 34063.2 hPa NNW 2.1 km/h 8 km/h 54 % 0 mm
21:29 -17.8 °C -22.3 °C 34063.2 hPa NW 3.4 km/h 11.1 km/h 55 % 0 mm
21:34 -17.7 °C -22.1 °C 34063.2 hPa NNW 3.4 km/h 11.1 km/h 56 % 0 mm
21:39 -17.8 °C -22.1 °C 34063.2 hPa North 1.8 km/h 8 km/h 56 % 0 mm
21:44 -17.7 °C -21.9 °C 34063.2 hPa North 2.3 km/h 8 km/h 57 % 0 mm
21:49 -17.7 °C -21.9 °C 34063.2 hPa NNW 1.8 km/h 7.6 km/h 57 % 0 mm
21:54 -17.7 °C -21.8 °C 34063.2 hPa NW 1.8 km/h 11.1 km/h 58 % 0 mm
21:59 -17.6 °C -21.7 °C 34063.2 hPa NW 3.4 km/h 11.1 km/h 58 % 0 mm
22:04 -17.4 °C -21.4 °C 34063.2 hPa WNW 4.7 km/h 9.8 km/h 59 % 0 mm
22:09 -17.2 °C -21 °C 34063.2 hPa WNW 5.5 km/h 9.8 km/h 60 % 0 mm
22:14 -16.7 °C -20.4 °C 34063.2 hPa WSW 6.3 km/h 11.1 km/h 61 % 0 mm
22:19 -16.3 °C -19.8 °C 34063.2 hPa SSW 5.1 km/h 11.1 km/h 63 % 0 mm
22:24 -16 °C -19.4 °C 34063.2 hPa SW 6.3 km/h 19.2 km/h 64 % 0 mm
22:29 -15.8 °C -19.2 °C 34063.2 hPa SW 10.1 km/h 19.6 km/h 64 % 0 mm
22:34 -15.4 °C -18.7 °C 34063.2 hPa SW 10.3 km/h 19.6 km/h 65 % 0 mm
22:39 -15.2 °C -18.4 °C 34063.2 hPa WSW 9.7 km/h 19.6 km/h 66 % 0 mm
22:44 -15 °C -18.2 °C 34029.3 hPa SW 9.3 km/h 19.6 km/h 66 % 0 mm
22:49 -14.8 °C -18 °C 34029.3 hPa SW 9 km/h 16.9 km/h 66 % 0 mm
22:54 -14.7 °C -17.9 °C 34029.3 hPa SW 8.5 km/h 15.6 km/h 66 % 0 mm
22:59 -14.6 °C -17.8 °C 34029.3 hPa SW 9.7 km/h 30.7 km/h 66 % 0 mm
23:04 -14.3 °C -17.7 °C 34029.3 hPa SW 9.3 km/h 30.7 km/h 65 % 0 mm
23:09 -14.3 °C -17.7 °C 34029.3 hPa SW 7.7 km/h 16.9 km/h 65 % 0 mm
23:14 -14.2 °C -17.7 °C 34029.3 hPa WSW 10.1 km/h 26.2 km/h 64 % 0 mm
23:19 -14.1 °C -17.6 °C 34029.3 hPa WSW 10.1 km/h 26.2 km/h 64 % 0 mm
23:24 -14.1 °C -17.6 °C 34029.3 hPa SW 9.7 km/h 29 km/h 64 % 0 mm
23:29 -13.9 °C -17.6 °C 34029.3 hPa WSW 11.9 km/h 29 km/h 63 % 0 mm
23:34 -13.8 °C -17.5 °C 34029.3 hPa WSW 12.2 km/h 26.2 km/h 63 % 0 mm
23:39 -13.8 °C -17.6 °C 34029.3 hPa SW 11.9 km/h 26.7 km/h 62 % 0 mm
23:44 -13.8 °C -17.6 °C 33992.1 hPa SW 10.3 km/h 26.7 km/h 62 % 0 mm
23:49 -13.9 °C -17.7 °C 33992.1 hPa SW 9 km/h 19.6 km/h 62 % 0 mm
23:54 -13.9 °C -17.8 °C 33992.1 hPa SW 9 km/h 24.3 km/h 61 % 0 mm
23:59 -13.9 °C -17.8 °C 33992.1 hPa SW 10.3 km/h 24.3 km/h 61 % 0 mm
Vremenska postaja Senovo
Podatki zbrani iz Weather Underground - 3 mb

Script developed by  Jim McMurry - jmcmurry@mwt.net Adapted for the template by  Wim van der Kuil - Leuven-Template.eu

Vremenski podatki so objavljeni na:

European Weather Network

WeatherCloud

Weather Underground

AWEKAS

HAMweather, WeatherForYou, PWS Weather

MapView

Geostik

Slovenia weather network

Oprema, ki se uporablja:

Vremenski program
Cumulus

Vremenski server
Asus

Cumulus

Asus